createdAt,value
2023-03-26T00:01:26.099Z,99548.78
2023-03-26T00:03:30.470Z,99551.88
2023-03-26T00:05:33.451Z,99539.53
2023-03-26T00:07:36.347Z,99549.47
2023-03-26T00:09:39.409Z,99547.56
2023-03-26T00:11:42.680Z,99542.56
2023-03-26T00:13:46.869Z,99551.19
2023-03-26T00:15:49.985Z,99557.00
2023-03-26T00:17:54.204Z,99559.44
2023-03-26T00:19:59.668Z,99563.91
2023-03-26T00:22:03.906Z,99569.09
2023-03-26T00:24:09.991Z,99560.44
2023-03-26T00:26:12.960Z,99565.84
2023-03-26T00:28:17.199Z,99562.34
2023-03-26T00:30:20.185Z,99556.16
2023-03-26T00:32:27.988Z,99549.91
2023-03-26T00:34:31.002Z,99550.34
2023-03-26T00:36:37.246Z,99549.09
2023-03-26T00:38:40.260Z,99552.69
2023-03-26T00:40:44.179Z,99547.00
2023-03-26T00:42:47.504Z,99552.31
2023-03-26T00:44:55.029Z,99549.78
2023-03-26T00:46:58.017Z,99548.31
2023-03-26T00:49:01.923Z,99535.59
2023-03-26T00:51:06.427Z,99533.25
2023-03-26T00:53:12.229Z,99541.34
2023-03-26T00:55:16.102Z,99535.34
2023-03-26T00:57:34.526Z,99545.84
2023-03-26T00:59:39.087Z,99528.00
2023-03-26T01:01:42.429Z,99529.81
2023-03-26T01:04:04.880Z,99522.00
2023-03-26T01:06:13.702Z,99513.19
2023-03-26T01:08:25.941Z,99521.53
2023-03-26T01:10:30.021Z,99524.28
2023-03-26T01:12:33.252Z,99510.47
2023-03-26T01:14:36.289Z,99514.50
2023-03-26T01:16:42.777Z,99509.41
2023-03-26T01:18:46.021Z,99510.56
2023-03-26T01:20:51.083Z,99506.06
2023-03-26T01:22:59.414Z,99503.91
2023-03-26T01:25:04.745Z,99509.88
2023-03-26T01:27:17.982Z,99501.47
2023-03-26T01:29:24.301Z,99505.34
2023-03-26T01:31:30.842Z,99496.47
2023-03-26T01:33:38.346Z,99493.22
2023-03-26T01:35:45.849Z,99501.75
2023-03-26T01:37:58.826Z,99495.91
2023-03-26T01:40:07.070Z,99490.25
2023-03-26T01:42:13.283Z,99485.97
2023-03-26T01:44:20.936Z,99485.59
2023-03-26T01:46:25.615Z,99483.31
2023-03-26T01:48:31.853Z,99475.19
2023-03-26T01:50:34.845Z,99480.69
2023-03-26T01:52:38.192Z,99481.91
2023-03-26T01:54:42.997Z,99481.50
2023-03-26T01:56:53.296Z,99477.88
2023-03-26T01:59:08.761Z,99475.72
2023-03-26T02:01:19.826Z,99476.34
2023-03-26T02:03:27.035Z,99471.69
2023-03-26T02:05:32.565Z,99467.03
2023-03-26T02:07:41.338Z,99466.34
2023-03-26T02:09:49.840Z,99461.38
2023-03-26T02:11:55.238Z,99462.63
2023-03-26T02:13:59.338Z,99461.00
2023-03-26T02:16:04.193Z,99448.78
2023-03-26T02:18:10.771Z,99449.63
2023-03-26T02:20:15.444Z,99450.94
2023-03-26T02:22:18.863Z,99443.69
2023-03-26T02:24:22.584Z,99436.84
2023-03-26T02:26:31.043Z,99440.56
2023-03-26T02:28:43.136Z,99431.22
2023-03-26T02:30:47.501Z,99433.31
2023-03-26T02:32:52.423Z,99430.44
2023-03-26T02:34:56.273Z,99422.28
2023-03-26T02:37:00.136Z,99426.22
2023-03-26T02:39:05.204Z,99412.06
2023-03-26T02:41:11.972Z,99417.78
2023-03-26T02:43:28.154Z,99407.88
2023-03-26T02:45:32.541Z,99409.66
2023-03-26T02:47:41.706Z,99413.16
2023-03-26T02:50:09.033Z,99414.09
2023-03-26T02:52:28.183Z,99412.78
2023-03-26T02:54:34.290Z,99411.63
2023-03-26T02:56:53.571Z,99409.72
2023-03-26T02:59:13.846Z,99397.81
2023-03-26T03:01:20.521Z,99395.97
2023-03-26T03:03:29.967Z,99398.13
2023-03-26T03:05:38.006Z,99394.41
2023-03-26T03:07:49.840Z,99398.50
2023-03-26T03:09:53.147Z,99401.53
2023-03-26T03:12:19.100Z,99391.00
2023-03-26T03:14:22.187Z,99403.00
2023-03-26T03:16:27.125Z,99400.50
2023-03-26T03:18:30.594Z,99399.06
2023-03-26T03:20:35.123Z,99397.50
2023-03-26T03:22:38.499Z,99391.38
2023-03-26T03:24:43.788Z,99392.53
2023-03-26T03:26:47.605Z,99382.34
2023-03-26T03:29:13.823Z,99379.38
2023-03-26T03:31:18.075Z,99377.06
2023-03-26T03:33:22.641Z,99371.91
2023-03-26T03:35:27.612Z,99362.06
2023-03-26T03:37:33.560Z,99365.94
2023-03-26T03:39:36.673Z,99358.38
2023-03-26T03:41:39.799Z,99360.94
2023-03-26T03:43:47.586Z,99352.66
2023-03-26T03:45:55.422Z,99347.63
2023-03-26T03:48:07.768Z,99349.06
2023-03-26T03:50:18.754Z,99350.34
2023-03-26T03:52:35.608Z,99353.63
2023-03-26T03:54:38.800Z,99351.53
2023-03-26T03:56:59.557Z,99350.03
2023-03-26T04:00:15.675Z,99345.78
2023-03-26T04:02:26.322Z,99341.38
2023-03-26T04:04:34.376Z,99339.28
2023-03-26T04:06:41.153Z,99342.88
2023-03-26T04:08:46.036Z,99334.44
2023-03-26T04:10:49.679Z,99339.44
2023-03-26T04:12:52.875Z,99333.41
2023-03-26T04:15:04.419Z,99329.53
2023-03-26T04:17:08.778Z,99322.06
2023-03-26T04:19:15.940Z,99333.66
2023-03-26T04:21:19.485Z,99328.63
2023-03-26T04:23:24.451Z,99325.50
2023-03-26T04:25:33.581Z,99323.03
2023-03-26T04:27:51.800Z,99316.91
2023-03-26T04:30:01.209Z,99315.47
2023-03-26T04:32:06.819Z,99316.22
2023-03-26T04:34:15.703Z,99308.59
2023-03-26T04:36:28.537Z,99305.38
2023-03-26T04:38:42.290Z,99298.34
2023-03-26T04:40:47.491Z,99299.50
2023-03-26T04:42:50.648Z,99294.00
2023-03-26T04:45:09.576Z,99290.22
2023-03-26T04:47:13.224Z,99290.47
2023-03-26T04:49:21.130Z,99274.28
2023-03-26T04:51:27.162Z,99280.31
2023-03-26T04:53:32.978Z,99277.41
2023-03-26T04:55:52.533Z,99279.72
2023-03-26T04:58:14.041Z,99270.06
2023-03-26T05:00:30.273Z,99265.63
2023-03-26T05:02:39.957Z,99264.38
2023-03-26T05:04:43.967Z,99267.56
2023-03-26T05:06:49.358Z,99268.50
2023-03-26T05:09:00.047Z,99266.13
2023-03-26T05:11:26.115Z,99260.69
2023-03-26T05:13:29.098Z,99251.41
2023-03-26T05:15:36.725Z,99248.53
2023-03-26T05:17:49.554Z,99255.34
2023-03-26T05:19:59.695Z,99246.47
2023-03-26T05:22:03.216Z,99246.13
2023-03-26T05:24:14.209Z,99249.38
2023-03-26T05:26:17.484Z,99240.88
2023-03-26T05:28:24.393Z,99236.84
2023-03-26T05:30:44.603Z,99233.75
2023-03-26T05:32:48.793Z,99225.91
2023-03-26T05:34:54.067Z,99223.81
2023-03-26T05:36:57.530Z,99223.72
2023-03-26T05:39:31.044Z,99217.50
2023-03-26T05:41:43.385Z,99212.53
2023-03-26T05:43:47.769Z,99213.16
2023-03-26T05:46:03.903Z,99209.66
2023-03-26T05:48:08.506Z,99213.63
2023-03-26T05:50:12.564Z,99202.97
2023-03-26T05:52:19.220Z,99207.63
2023-03-26T05:54:43.266Z,99197.84
2023-03-26T05:57:09.277Z,99199.72
2023-03-26T05:59:30.917Z,99193.72
2023-03-26T06:02:03.330Z,99193.97
2023-03-26T06:04:13.671Z,99188.19
2023-03-26T06:06:24.172Z,99183.78
2023-03-26T06:08:33.678Z,99177.81
2023-03-26T06:10:42.319Z,99174.59
2023-03-26T06:12:45.534Z,99169.13
2023-03-26T06:14:50.243Z,99172.66
2023-03-26T06:17:02.663Z,99165.19
2023-03-26T06:19:12.115Z,99166.19
2023-03-26T06:21:34.351Z,99161.84
2023-03-26T06:23:51.864Z,99162.28
2023-03-26T06:26:26.577Z,99153.38
2023-03-26T06:28:56.195Z,99153.19
2023-03-26T06:31:19.603Z,99148.09
2023-03-26T06:33:36.158Z,99149.78
2023-03-26T06:35:39.373Z,99145.38
2023-03-26T06:37:42.553Z,99143.00
2023-03-26T06:39:46.080Z,99141.31
2023-03-26T06:41:54.113Z,99141.81
2023-03-26T06:44:23.292Z,99152.19
2023-03-26T06:46:45.542Z,99156.84
2023-03-26T06:49:20.917Z,99147.06
2023-03-26T06:51:43.587Z,99144.34
2023-03-26T06:53:55.321Z,99153.09
2023-03-26T06:56:16.976Z,99156.31
2023-03-26T06:58:37.430Z,99149.69
2023-03-26T07:00:59.140Z,99151.75
2023-03-26T07:03:22.078Z,99155.91
2023-03-26T07:05:44.000Z,99154.97
2023-03-26T07:08:07.370Z,99147.34
2023-03-26T07:10:42.117Z,99143.44
2023-03-26T07:12:54.998Z,99141.22
2023-03-26T07:15:25.496Z,99143.66
2023-03-26T07:17:28.765Z,99133.81
2023-03-26T07:19:39.368Z,99142.16
2023-03-26T07:21:43.119Z,99139.09
2023-03-26T07:24:12.523Z,99128.22
2023-03-26T07:26:39.808Z,99133.31
2023-03-26T07:29:04.455Z,99127.03
2023-03-26T07:31:51.390Z,99127.63
2023-03-26T07:34:28.013Z,99122.97
2023-03-26T07:37:01.219Z,99120.81
2023-03-26T07:39:40.601Z,99121.41
2023-03-26T07:42:07.093Z,99122.97
2023-03-26T07:44:45.157Z,99117.31
2023-03-26T07:47:25.678Z,99122.28
2023-03-26T07:49:49.271Z,99113.25
2023-03-26T07:52:01.330Z,99114.31
2023-03-26T07:54:28.225Z,99103.88
2023-03-26T07:57:04.528Z,99115.31
2023-03-26T07:59:20.729Z,99103.41
2023-03-26T08:01:50.533Z,99096.84
2023-03-26T08:04:24.185Z,99097.78
2023-03-26T08:06:53.322Z,99098.44
2023-03-26T08:09:28.794Z,99090.31
2023-03-26T08:11:55.901Z,99091.69
2023-03-26T08:14:06.556Z,99095.59
2023-03-26T08:16:15.607Z,99095.59
2023-03-26T08:18:29.387Z,99094.41
2023-03-26T08:20:41.728Z,99079.59
2023-03-26T08:22:50.804Z,99089.03
2023-03-26T08:25:18.970Z,99088.63
2023-03-26T08:27:25.481Z,99086.13
2023-03-26T08:29:33.103Z,99085.88
2023-03-26T08:31:39.329Z,99081.31
2023-03-26T08:33:42.348Z,99089.59
2023-03-26T08:35:47.121Z,99075.47
2023-03-26T08:37:53.273Z,99080.44
2023-03-26T08:39:56.277Z,99077.63
2023-03-26T08:42:26.859Z,99081.41
2023-03-26T08:45:16.804Z,99078.19
2023-03-26T08:47:49.725Z,99079.56
2023-03-26T08:50:27.815Z,99076.47
2023-03-26T08:52:41.324Z,99076.38
2023-03-26T08:54:49.662Z,99076.91
2023-03-26T08:56:57.781Z,99083.56
2023-03-26T08:59:28.645Z,99078.19
2023-03-26T09:02:21.775Z,99084.06
2023-03-26T09:04:50.973Z,99084.06
2023-03-26T09:07:09.732Z,99078.63
2023-03-26T09:09:45.069Z,99082.41
2023-03-26T09:12:09.285Z,99074.28
2023-03-26T09:14:52.429Z,99077.41
2023-03-26T09:17:08.668Z,99080.34
2023-03-26T09:20:01.973Z,99072.63
2023-03-26T09:22:36.441Z,99071.03
2023-03-26T09:25:16.696Z,99077.25
2023-03-26T09:27:35.132Z,99075.19
2023-03-26T09:30:22.573Z,99071.56
2023-03-26T09:33:09.860Z,99071.66
2023-03-26T09:35:30.062Z,99073.50
2023-03-26T09:37:56.879Z,99071.66
2023-03-26T09:40:15.634Z,99077.22
2023-03-26T09:42:25.688Z,99069.22
2023-03-26T09:44:59.129Z,99073.59
2023-03-26T09:47:35.030Z,99068.34
2023-03-26T09:49:47.104Z,99063.47
2023-03-26T09:52:00.563Z,99058.03
2023-03-26T09:54:14.696Z,99073.59
2023-03-26T09:56:27.934Z,99071.66
2023-03-26T09:59:00.081Z,99070.97
2023-03-26T10:01:11.110Z,99065.34
2023-03-26T10:03:27.129Z,99066.91
2023-03-26T10:05:55.274Z,99069.25
2023-03-26T10:08:07.871Z,99065.63
2023-03-26T10:10:18.803Z,99068.09
2023-03-26T10:12:31.926Z,99070.56
2023-03-26T10:14:41.658Z,99063.19
2023-03-26T10:16:55.686Z,99064.66
2023-03-26T10:19:14.333Z,99061.03
2023-03-26T10:21:25.632Z,99054.81
2023-03-26T10:23:54.509Z,99061.28
2023-03-26T10:26:11.070Z,99056.19
2023-03-26T10:28:27.785Z,99057.94
2023-03-26T10:30:54.818Z,99056.56
2023-03-26T10:33:02.403Z,99058.28
2023-03-26T10:35:20.245Z,99059.75
2023-03-26T10:37:29.041Z,99053.28
2023-03-26T10:40:01.159Z,99056.44
2023-03-26T10:42:17.815Z,99047.50
2023-03-26T10:44:37.930Z,99048.53
2023-03-26T10:47:13.543Z,99053.13
2023-03-26T10:49:41.021Z,99043.09
2023-03-26T10:51:50.670Z,99047.94
2023-03-26T10:53:57.915Z,99038.69
2023-03-26T10:56:13.608Z,99039.97
2023-03-26T10:58:20.062Z,99046.50
2023-03-26T11:00:26.212Z,99039.97
2023-03-26T11:02:41.137Z,99041.81
2023-03-26T11:04:51.769Z,99048.19
2023-03-26T11:07:04.866Z,99040.91
2023-03-26T11:09:22.733Z,99041.75
2023-03-26T11:11:30.612Z,99030.53
2023-03-26T11:13:42.796Z,99032.16
2023-03-26T11:15:50.228Z,99030.53
2023-03-26T11:18:05.100Z,99027.91
2023-03-26T11:20:12.337Z,99035.13
2023-03-26T11:22:35.044Z,99034.50
2023-03-26T11:24:59.263Z,99027.94
2023-03-26T11:27:14.966Z,99026.94
2023-03-26T11:29:34.419Z,99028.97
2023-03-26T11:31:46.729Z,99027.22
2023-03-26T11:33:54.821Z,99026.66
2023-03-26T11:36:03.276Z,99024.31
2023-03-26T11:38:08.049Z,99023.97
2023-03-26T11:40:16.758Z,99026.50
2023-03-26T11:42:23.861Z,99027.53
2023-03-26T11:44:28.944Z,99019.22
2023-03-26T11:46:33.883Z,99020.81
2023-03-26T11:48:40.919Z,99022.25
2023-03-26T11:50:48.120Z,99012.44
2023-03-26T11:52:52.379Z,99017.25
2023-03-26T11:55:00.527Z,99015.97
2023-03-26T11:57:08.881Z,99018.94
2023-03-26T11:59:14.793Z,99011.91
2023-03-26T12:01:19.177Z,99008.50
2023-03-26T12:03:22.192Z,99006.41
2023-03-26T12:05:29.767Z,99006.81
2023-03-26T12:07:35.784Z,99003.00
2023-03-26T12:09:38.635Z,99011.31
2023-03-26T12:11:41.516Z,99014.44
2023-03-26T12:13:46.432Z,99012.38
2023-03-26T12:15:52.423Z,99008.13
2023-03-26T12:17:58.052Z,99010.03
2023-03-26T12:20:02.402Z,99004.25
2023-03-26T12:22:05.857Z,98999.06
2023-03-26T12:24:26.298Z,98989.56
2023-03-26T12:26:42.405Z,98993.31
2023-03-26T12:28:47.282Z,98991.41
2023-03-26T12:30:55.522Z,98993.53
2023-03-26T12:33:03.765Z,98994.94
2023-03-26T12:35:08.180Z,98992.16
2023-03-26T12:37:35.225Z,98987.28
2023-03-26T12:40:09.551Z,98980.44
2023-03-26T12:44:46.649Z,98986.38
2023-03-26T12:44:56.464Z,98988.41
2023-03-26T12:48:00.298Z,98982.41
2023-03-26T12:49:32.078Z,98979.28
2023-03-26T12:51:41.822Z,98982.59
2023-03-26T12:53:53.181Z,98979.19
2023-03-26T12:56:01.843Z,98978.91
2023-03-26T12:58:17.816Z,98969.50
2023-03-26T13:00:29.112Z,98985.59
2023-03-26T13:03:01.831Z,98972.06
2023-03-26T13:05:19.675Z,98979.25
2023-03-26T13:07:28.684Z,98978.50
2023-03-26T13:09:55.262Z,98968.47
2023-03-26T13:12:12.178Z,98970.50
2023-03-26T13:14:25.996Z,98972.06
2023-03-26T13:16:36.557Z,98968.47
2023-03-26T13:18:46.377Z,98972.59
2023-03-26T13:20:52.245Z,98964.06
2023-03-26T13:23:02.152Z,98963.84
2023-03-26T13:25:16.164Z,98964.06
2023-03-26T13:27:34.364Z,98963.53
2023-03-26T13:29:46.407Z,98967.13
2023-03-26T13:31:56.429Z,98968.03
2023-03-26T13:34:05.636Z,98962.31
2023-03-26T13:36:23.046Z,98960.25
2023-03-26T13:38:36.052Z,98961.91
2023-03-26T13:40:46.365Z,98957.69
2023-03-26T13:43:15.046Z,98947.94
2023-03-26T13:45:30.212Z,98945.84
2023-03-26T13:47:35.284Z,98944.09
2023-03-26T13:49:42.030Z,98949.09
2023-03-26T13:51:50.513Z,98946.16
2023-03-26T13:53:57.078Z,98946.97
2023-03-26T13:56:01.420Z,98953.13
2023-03-26T13:58:11.981Z,98960.00
2023-03-26T14:00:17.297Z,98949.44
2023-03-26T14:02:27.532Z,98959.75
2023-03-26T14:04:32.589Z,98966.91
2023-03-26T14:06:43.509Z,98962.28
2023-03-26T14:08:49.182Z,98961.53
2023-03-26T14:10:54.939Z,98962.03
2023-03-26T14:12:59.934Z,98965.56
2023-03-26T14:15:08.461Z,98968.22
2023-03-26T14:17:17.318Z,98969.88
2023-03-26T14:19:37.399Z,98973.47
2023-03-26T14:21:51.408Z,98974.16
2023-03-26T14:24:21.346Z,98971.03
2023-03-26T14:26:31.341Z,98974.34
2023-03-26T14:29:09.196Z,98971.19
2023-03-26T14:31:23.930Z,98972.03
2023-03-26T14:33:46.030Z,98974.69
2023-03-26T14:35:55.682Z,98975.44
2023-03-26T14:38:19.422Z,98978.31
2023-03-26T14:40:41.787Z,98980.72
2023-03-26T14:42:56.690Z,98980.38
2023-03-26T14:45:23.783Z,98989.19
2023-03-26T14:47:34.319Z,98985.81
2023-03-26T14:49:56.181Z,98988.28
2023-03-26T14:52:24.079Z,98987.44
2023-03-26T14:57:11.587Z,98989.00
2023-03-26T14:59:59.326Z,98994.91
2023-03-26T15:02:38.312Z,98995.84
2023-03-26T15:05:26.071Z,99007.00
2023-03-26T15:08:09.823Z,99004.47
2023-03-26T15:10:50.618Z,99002.47
2023-03-26T15:13:17.490Z,99013.59
2023-03-26T15:15:36.678Z,99013.41
2023-03-26T15:18:15.778Z,99021.88
2023-03-26T15:20:54.013Z,99018.88
2023-03-26T15:23:36.273Z,99024.97
2023-03-26T15:26:17.041Z,99035.47
2023-03-26T15:29:05.608Z,99039.34
2023-03-26T15:31:32.764Z,99041.72
2023-03-26T15:34:21.286Z,99052.03
2023-03-26T15:37:03.580Z,99053.09
2023-03-26T15:39:59.421Z,99053.09
2023-03-26T15:42:09.749Z,99059.84
2023-03-26T15:44:50.934Z,99065.75
2023-03-26T15:47:38.163Z,99068.28
2023-03-26T15:49:49.194Z,99075.66
2023-03-26T15:51:56.857Z,99076.22
2023-03-26T15:56:43.005Z,99085.13
2023-03-26T15:59:00.155Z,99094.09
2023-03-26T16:01:21.004Z,99099.66
2023-03-26T16:03:34.323Z,99106.66
2023-03-26T16:05:46.863Z,99105.88
2023-03-26T16:07:59.158Z,99108.03
2023-03-26T16:10:30.539Z,99108.00
2023-03-26T16:12:51.139Z,99112.06
2023-03-26T16:15:17.387Z,99117.78
2023-03-26T16:17:25.328Z,99119.19
2023-03-26T16:19:54.302Z,99126.50
2023-03-26T16:22:01.693Z,99126.69
2023-03-26T16:24:27.147Z,99131.03
2023-03-26T16:26:39.056Z,99134.59
2023-03-26T16:29:24.339Z,99136.97
2023-03-26T16:31:39.285Z,99144.53
2023-03-26T16:33:50.567Z,99148.03
2023-03-26T16:36:34.846Z,99142.66
2023-03-26T16:38:54.787Z,99150.38
2023-03-26T16:41:10.386Z,99156.44
2023-03-26T16:43:51.928Z,99165.78
2023-03-26T16:46:12.079Z,99165.03
2023-03-26T16:48:25.295Z,99169.31
2023-03-26T16:50:41.880Z,99172.53
2023-03-26T16:52:55.185Z,99179.31
2023-03-26T16:55:08.533Z,99191.91
2023-03-26T16:57:24.674Z,99198.69
2023-03-26T17:00:06.435Z,99207.97
2023-03-26T17:02:25.473Z,99205.81
2023-03-26T17:04:33.731Z,99218.38
2023-03-26T17:07:04.318Z,99228.81
2023-03-26T17:09:19.818Z,99225.06
2023-03-26T17:11:28.991Z,99230.94
2023-03-26T17:13:42.435Z,99242.19
2023-03-26T17:16:04.903Z,99246.28
2023-03-26T17:18:36.958Z,99250.94
2023-03-26T17:20:44.043Z,99258.16
2023-03-26T17:22:49.197Z,99258.50
2023-03-26T17:25:20.653Z,99265.94
2023-03-26T17:27:37.548Z,99272.81
2023-03-26T17:29:59.523Z,99272.75
2023-03-26T17:32:08.687Z,99284.34
2023-03-26T17:35:00.593Z,99281.81
2023-03-26T17:37:09.438Z,99287.84
2023-03-26T17:39:23.618Z,99290.09
2023-03-26T17:41:57.427Z,99301.31
2023-03-26T17:44:01.057Z,99298.91
2023-03-26T17:46:06.327Z,99301.63
2023-03-26T17:48:17.864Z,99317.63
2023-03-26T17:50:23.006Z,99310.22
2023-03-26T17:52:48.584Z,99309.44
2023-03-26T17:54:52.977Z,99321.50
2023-03-26T17:56:57.348Z,99315.69
2023-03-26T17:59:11.584Z,99320.13
2023-03-26T18:01:23.454Z,99334.03
2023-03-26T18:03:31.133Z,99337.34
2023-03-26T18:05:34.597Z,99334.19
2023-03-26T18:07:58.729Z,99342.00
2023-03-26T18:10:14.225Z,99343.53
2023-03-26T18:12:35.524Z,99349.59
2023-03-26T18:15:01.385Z,99359.25
2023-03-26T18:17:04.823Z,99358.78
2023-03-26T18:19:18.439Z,99365.25
2023-03-26T18:21:25.729Z,99368.13
2023-03-26T18:23:36.649Z,99372.66
2023-03-26T18:25:41.014Z,99379.38
2023-03-26T18:27:44.086Z,99381.19
2023-03-26T18:29:48.337Z,99380.69
2023-03-26T18:31:55.326Z,99388.72
2023-03-26T18:34:06.777Z,99389.59
2023-03-26T18:36:12.150Z,99398.97
2023-03-26T18:38:18.754Z,99399.09
2023-03-26T18:40:43.117Z,99397.81
2023-03-26T18:42:48.044Z,99407.69
2023-03-26T18:44:51.806Z,99406.91
2023-03-26T18:46:56.300Z,99415.38
2023-03-26T18:49:00.011Z,99417.22
2023-03-26T18:51:05.949Z,99417.22
2023-03-26T18:53:16.951Z,99427.66
2023-03-26T18:55:20.052Z,99433.00
2023-03-26T18:57:26.209Z,99435.34
2023-03-26T18:59:32.196Z,99443.38
2023-03-26T19:01:37.132Z,99441.88
2023-03-26T19:03:43.668Z,99441.78
2023-03-26T19:05:46.955Z,99438.09
2023-03-26T19:07:52.355Z,99446.78
2023-03-26T19:09:56.666Z,99455.78
2023-03-26T19:12:06.621Z,99451.66
2023-03-26T19:14:18.510Z,99463.88
2023-03-26T19:16:23.692Z,99463.09
2023-03-26T19:18:27.990Z,99465.72
2023-03-26T19:20:35.868Z,99475.84
2023-03-26T19:22:42.219Z,99480.06
2023-03-26T19:24:45.359Z,99482.03
2023-03-26T19:26:48.626Z,99487.06
2023-03-26T19:28:53.704Z,99489.19
2023-03-26T19:31:05.387Z,99489.41
2023-03-26T19:33:14.900Z,99502.31
2023-03-26T19:35:23.468Z,99497.94
2023-03-26T19:37:29.836Z,99502.22
2023-03-26T19:39:43.887Z,99502.88
2023-03-26T19:41:51.990Z,99502.38
2023-03-26T19:43:57.870Z,99502.88
2023-03-26T19:46:02.366Z,99511.00
2023-03-26T19:48:14.998Z,99514.06
2023-03-26T19:50:26.734Z,99519.03
2023-03-26T19:52:33.627Z,99526.44
2023-03-26T19:55:00.073Z,99528.16
2023-03-26T19:57:03.617Z,99535.75
2023-03-26T19:59:06.703Z,99537.91
2023-03-26T20:01:17.053Z,99537.53
2023-03-26T20:03:27.394Z,99544.19
2023-03-26T20:05:32.944Z,99545.16
2023-03-26T20:07:39.269Z,99552.50
2023-03-26T20:09:44.052Z,99559.78
2023-03-26T20:11:47.458Z,99559.63
2023-03-26T20:13:51.217Z,99575.31
2023-03-26T20:16:05.662Z,99575.59
2023-03-26T20:18:12.400Z,99582.91
2023-03-26T20:20:17.446Z,99576.47
2023-03-26T20:22:21.106Z,99586.28
2023-03-26T20:24:24.786Z,99589.34
2023-03-26T20:26:28.138Z,99595.03
2023-03-26T20:28:38.674Z,99605.53
2023-03-26T20:30:51.899Z,99607.72
2023-03-26T20:33:12.919Z,99602.47
2023-03-26T20:35:19.923Z,99604.38
2023-03-26T20:37:39.208Z,99616.13
2023-03-26T20:39:42.614Z,99619.31
2023-03-26T20:41:47.621Z,99628.44
2023-03-26T20:43:50.878Z,99636.88
2023-03-26T20:45:53.982Z,99637.59
2023-03-26T20:47:57.537Z,99649.88
2023-03-26T20:50:01.930Z,99646.34
2023-03-26T20:52:06.617Z,99649.31
2023-03-26T20:54:20.176Z,99654.47
2023-03-26T20:56:23.400Z,99664.59
2023-03-26T20:58:31.789Z,99666.34
2023-03-26T21:00:37.221Z,99667.66
2023-03-26T21:02:41.944Z,99667.66
2023-03-26T21:04:47.356Z,99681.94
2023-03-26T21:06:50.864Z,99685.63
2023-03-26T21:08:57.617Z,99691.97
2023-03-26T21:11:02.075Z,99687.66
2023-03-26T21:13:08.768Z,99687.97
2023-03-26T21:15:22.403Z,99690.00
2023-03-26T21:17:27.288Z,99695.19
2023-03-26T21:19:30.788Z,99705.19
2023-03-26T21:21:42.650Z,99706.06
2023-03-26T21:23:49.632Z,99712.72
2023-03-26T21:26:01.559Z,99724.34
2023-03-26T21:28:16.277Z,99731.00
2023-03-26T21:30:20.398Z,99733.63
2023-03-26T21:32:24.389Z,99735.00
2023-03-26T21:34:29.330Z,99743.88
2023-03-26T21:36:33.494Z,99746.50
2023-03-26T21:38:37.654Z,99749.19
2023-03-26T21:40:46.978Z,99752.81
2023-03-26T21:42:58.141Z,99766.88
2023-03-26T21:45:01.549Z,99757.34
2023-03-26T21:47:09.538Z,99763.09
2023-03-26T21:49:14.944Z,99770.03
2023-03-26T21:51:19.154Z,99770.13
2023-03-26T21:53:24.110Z,99778.00
2023-03-26T21:55:27.847Z,99777.00
2023-03-26T21:57:40.547Z,99777.13
2023-03-26T21:59:51.397Z,99788.50
2023-03-26T22:01:59.101Z,99786.19
2023-03-26T22:04:07.851Z,99794.97
2023-03-26T22:06:14.552Z,99801.06
2023-03-26T22:08:23.764Z,99813.28
2023-03-26T22:10:27.044Z,99821.16
2023-03-26T22:12:29.928Z,99823.94
2023-03-26T22:14:33.663Z,99824.84
2023-03-26T22:16:37.951Z,99831.16
2023-03-26T22:18:43.698Z,99836.28
2023-03-26T22:20:47.909Z,99835.47
2023-03-26T22:22:55.323Z,99841.56
2023-03-26T22:24:58.883Z,99840.97
2023-03-26T22:27:01.991Z,99846.00
2023-03-26T22:29:07.464Z,99845.19
2023-03-26T22:31:10.869Z,99849.59
2023-03-26T22:33:20.825Z,99853.94
2023-03-26T22:35:23.863Z,99854.91
2023-03-26T22:37:27.220Z,99866.41
2023-03-26T22:39:30.218Z,99874.31
2023-03-26T22:41:33.114Z,99872.53
2023-03-26T22:43:35.968Z,99883.03
2023-03-26T22:45:38.857Z,99876.31
2023-03-26T22:47:42.364Z,99879.09
2023-03-26T22:49:46.639Z,99884.25
2023-03-26T22:51:50.190Z,99890.31
2023-03-26T22:53:53.041Z,99888.66
2023-03-26T22:55:58.910Z,99898.28
2023-03-26T22:58:01.931Z,99901.88
2023-03-26T23:00:16.479Z,99913.25
2023-03-26T23:02:19.855Z,99915.91
2023-03-26T23:04:31.533Z,99916.84
2023-03-26T23:06:36.428Z,99929.81
2023-03-26T23:08:39.878Z,99926.28
2023-03-26T23:10:43.975Z,99927.31
2023-03-26T23:12:46.988Z,99926.44
2023-03-26T23:14:52.937Z,99929.97
2023-03-26T23:16:56.069Z,99940.63
2023-03-26T23:18:59.369Z,99934.63
2023-03-26T23:21:02.249Z,99941.47
2023-03-26T23:23:06.953Z,99950.34
2023-03-26T23:25:10.966Z,99951.97
2023-03-26T23:27:14.630Z,99956.34
2023-03-26T23:29:18.332Z,99957.19
2023-03-26T23:31:21.378Z,99958.94
2023-03-26T23:33:26.389Z,99969.28
2023-03-26T23:35:29.552Z,99974.59
2023-03-26T23:37:35.019Z,99975.41
2023-03-26T23:39:39.518Z,99981.59
2023-03-26T23:41:42.749Z,99983.38
2023-03-26T23:43:54.828Z,99992.91
2023-03-26T23:45:59.472Z,99995.50
2023-03-26T23:48:03.890Z,99992.06
2023-03-26T23:50:08.347Z,100005.22
2023-03-26T23:52:11.720Z,100008.69
2023-03-26T23:54:15.279Z,100013.91
2023-03-26T23:56:20.206Z,100016.69
2023-03-26T23:58:24.616Z,100016.72
